sensor_id;sensor_type;location;lat;lon;timestamp;pressure;altitude;pressure_sealevel;temperature;humidity
77207;BME280;66190;50.708;7.906;2023-03-14T00:00:58;94280.91;;;8.91;83.66
77207;BME280;66190;50.708;7.906;2023-03-14T00:03:25;94276.13;;;8.93;83.72
77207;BME280;66190;50.708;7.906;2023-03-14T00:05:50;94271.78;;;8.92;83.64
77207;BME280;66190;50.708;7.906;2023-03-14T00:08:16;94277.72;;;8.94;83.19
77207;BME280;66190;50.708;7.906;2023-03-14T00:10:41;94299.19;;;8.94;83.58
77207;BME280;66190;50.708;7.906;2023-03-14T00:13:07;94300.00;;;8.94;83.29
77207;BME280;66190;50.708;7.906;2023-03-14T00:15:34;94291.72;;;8.96;83.30
77207;BME280;66190;50.708;7.906;2023-03-14T00:17:59;94289.28;;;8.94;83.29
77207;BME280;66190;50.708;7.906;2023-03-14T00:20:24;94292.28;;;8.98;83.22
77207;BME280;66190;50.708;7.906;2023-03-14T00:22:50;94298.69;;;8.97;82.83
77207;BME280;66190;50.708;7.906;2023-03-14T00:25:15;94299.50;;;8.97;82.80
77207;BME280;66190;50.708;7.906;2023-03-14T00:27:41;94307.78;;;8.96;82.96
77207;BME280;66190;50.708;7.906;2023-03-14T00:30:07;94309.34;;;8.92;83.04
77207;BME280;66190;50.708;7.906;2023-03-14T00:32:36;94314.13;;;8.90;83.28
77207;BME280;66190;50.708;7.906;2023-03-14T00:35:03;94310.88;;;8.88;83.43
77207;BME280;66190;50.708;7.906;2023-03-14T00:37:29;94290.00;;;8.90;83.29
77207;BME280;66190;50.708;7.906;2023-03-14T00:39:54;94281.88;;;8.85;82.87
77207;BME280;66190;50.708;7.906;2023-03-14T00:42:19;94296.34;;;8.84;83.25
77207;BME280;66190;50.708;7.906;2023-03-14T00:44:45;94282.69;;;8.85;83.09
77207;BME280;66190;50.708;7.906;2023-03-14T00:47:10;94283.97;;;8.83;83.37
77207;BME280;66190;50.708;7.906;2023-03-14T00:49:36;94259.06;;;8.82;83.21
77207;BME280;66190;50.708;7.906;2023-03-14T00:52:01;94249.94;;;8.83;83.17
77207;BME280;66190;50.708;7.906;2023-03-14T00:54:27;94257.66;;;8.80;83.94
77207;BME280;66190;50.708;7.906;2023-03-14T00:56:52;94251.72;;;8.78;84.93
77207;BME280;66190;50.708;7.906;2023-03-14T00:59:17;94241.75;;;8.73;85.52
77207;BME280;66190;50.708;7.906;2023-03-14T01:01:43;94246.22;;;8.68;86.09
77207;BME280;66190;50.708;7.906;2023-03-14T01:04:08;94242.25;;;8.54;86.43
77207;BME280;66190;50.708;7.906;2023-03-14T01:06:34;94241.22;;;8.55;86.61
77207;BME280;66190;50.708;7.906;2023-03-14T01:09:00;94237.47;;;8.56;86.71
77207;BME280;66190;50.708;7.906;2023-03-14T01:11:28;94234.69;;;8.51;87.10
77207;BME280;66190;50.708;7.906;2023-03-14T01:13:53;94237.63;;;8.49;87.01
77207;BME280;66190;50.708;7.906;2023-03-14T01:16:21;94235.03;;;8.54;86.50
77207;BME280;66190;50.708;7.906;2023-03-14T01:18:47;94230.50;;;8.55;86.97
77207;BME280;66190;50.708;7.906;2023-03-14T01:23:44;94240.13;;;8.56;87.21
77207;BME280;66190;50.708;7.906;2023-03-14T01:26:11;94239.00;;;8.52;87.35
77207;BME280;66190;50.708;7.906;2023-03-14T01:28:37;94238.75;;;8.53;87.30
77207;BME280;66190;50.708;7.906;2023-03-14T01:31:04;94248.97;;;8.40;87.65
77207;BME280;66190;50.708;7.906;2023-03-14T01:33:29;94239.91;;;8.41;87.38
77207;BME280;66190;50.708;7.906;2023-03-14T01:35:55;94229.19;;;8.41;87.40
77207;BME280;66190;50.708;7.906;2023-03-14T01:38:20;94223.91;;;8.46;86.89
77207;BME280;66190;50.708;7.906;2023-03-14T01:40:45;94229.00;;;8.47;86.66
77207;BME280;66190;50.708;7.906;2023-03-14T01:43:19;94223.00;;;8.40;87.05
77207;BME280;66190;50.708;7.906;2023-03-14T01:48:50;94226.97;;;8.38;86.71
77207;BME280;66190;50.708;7.906;2023-03-14T01:54:05;94208.97;;;8.33;87.61
77207;BME280;66190;50.708;7.906;2023-03-14T01:56:32;94218.94;;;8.38;87.28
77207;BME280;66190;50.708;7.906;2023-03-14T01:58:59;94204.66;;;8.32;87.41
77207;BME280;66190;50.708;7.906;2023-03-14T02:01:26;94207.97;;;8.39;86.97
77207;BME280;66190;50.708;7.906;2023-03-14T02:03:57;94207.19;;;8.39;86.71
77207;BME280;66190;50.708;7.906;2023-03-14T02:06:26;94206.94;;;8.40;87.01
77207;BME280;66190;50.708;7.906;2023-03-14T02:08:54;94206.09;;;8.40;87.39
77207;BME280;66190;50.708;7.906;2023-03-14T02:11:20;94203.78;;;8.27;87.26
77207;BME280;66190;50.708;7.906;2023-03-14T02:13:48;94191.41;;;8.26;87.75
77207;BME280;66190;50.708;7.906;2023-03-14T02:16:14;94197.09;;;8.29;87.76
77207;BME280;66190;50.708;7.906;2023-03-14T02:18:39;94185.38;;;8.19;88.24
77207;BME280;66190;50.708;7.906;2023-03-14T02:21:16;94184.19;;;8.26;88.10
77207;BME280;66190;50.708;7.906;2023-03-14T02:26:38;94181.59;;;8.15;89.07
77207;BME280;66190;50.708;7.906;2023-03-14T02:29:05;94176.47;;;8.13;89.21
77207;BME280;66190;50.708;7.906;2023-03-14T02:31:32;94181.50;;;8.10;89.11
77207;BME280;66190;50.708;7.906;2023-03-14T02:33:58;94182.94;;;8.00;89.35
77207;BME280;66190;50.708;7.906;2023-03-14T02:36:24;94172.81;;;8.02;89.52
77207;BME280;66190;50.708;7.906;2023-03-14T02:38:55;94173.34;;;8.04;89.13
77207;BME280;66190;50.708;7.906;2023-03-14T02:41:25;94171.09;;;7.96;89.45
77207;BME280;66190;50.708;7.906;2023-03-14T02:43:51;94164.66;;;7.97;89.22
77207;BME280;66190;50.708;7.906;2023-03-14T02:46:18;94158.03;;;8.00;88.95
77207;BME280;66190;50.708;7.906;2023-03-14T02:49:02;94165.50;;;7.98;89.22
77207;BME280;66190;50.708;7.906;2023-03-14T02:51:30;94163.63;;;7.98;88.44
77207;BME280;66190;50.708;7.906;2023-03-14T02:53:56;94154.78;;;7.98;89.19
77207;BME280;66190;50.708;7.906;2023-03-14T02:56:21;94154.78;;;7.98;88.34
77207;BME280;66190;50.708;7.906;2023-03-14T02:58:47;94167.34;;;7.97;88.52
77207;BME280;66190;50.708;7.906;2023-03-14T03:01:12;94150.56;;;8.02;88.03
77207;BME280;66190;50.708;7.906;2023-03-14T03:03:38;94150.81;;;8.00;87.91
77207;BME280;66190;50.708;7.906;2023-03-14T03:06:03;94159.63;;;8.01;88.00
77207;BME280;66190;50.708;7.906;2023-03-14T03:08:29;94157.22;;;7.99;87.83
77207;BME280;66190;50.708;7.906;2023-03-14T03:10:56;94147.00;;;7.96;87.01
77207;BME280;66190;50.708;7.906;2023-03-14T03:13:22;94142.53;;;8.02;87.07
77207;BME280;66190;50.708;7.906;2023-03-14T03:15:47;94155.44;;;8.05;86.63
77207;BME280;66190;50.708;7.906;2023-03-14T03:18:13;94160.13;;;7.98;87.04
77207;BME280;66190;50.708;7.906;2023-03-14T03:20:38;94155.34;;;8.00;86.27
77207;BME280;66190;50.708;7.906;2023-03-14T03:23:04;94158.69;;;8.07;86.32
77207;BME280;66190;50.708;7.906;2023-03-14T03:25:30;94141.97;;;8.00;86.27
77207;BME280;66190;50.708;7.906;2023-03-14T03:27:56;94150.81;;;8.00;86.34
77207;BME280;66190;50.708;7.906;2023-03-14T03:30:21;94152.59;;;7.95;86.03
77207;BME280;66190;50.708;7.906;2023-03-14T03:32:47;94166.31;;;7.98;86.46
77207;BME280;66190;50.708;7.906;2023-03-14T03:35:13;94149.25;;;7.88;86.45
77207;BME280;66190;50.708;7.906;2023-03-14T03:37:40;94135.88;;;7.88;85.63
77207;BME280;66190;50.708;7.906;2023-03-14T03:40:06;94140.66;;;7.86;86.14
77207;BME280;66190;50.708;7.906;2023-03-14T03:42:33;94150.66;;;7.90;85.77
77207;BME280;66190;50.708;7.906;2023-03-14T03:44:59;94134.44;;;7.97;85.44
77207;BME280;66190;50.708;7.906;2023-03-14T03:47:25;94124.75;;;7.96;85.23
77207;BME280;66190;50.708;7.906;2023-03-14T03:49:50;94129.88;;;7.97;85.26
77207;BME280;66190;50.708;7.906;2023-03-14T03:52:16;94119.41;;;7.96;84.70
77207;BME280;66190;50.708;7.906;2023-03-14T03:54:41;94132.00;;;7.95;84.45
77207;BME280;66190;50.708;7.906;2023-03-14T03:57:06;94137.81;;;7.92;84.92
77207;BME280;66190;50.708;7.906;2023-03-14T03:59:32;94112.44;;;7.95;84.55
77207;BME280;66190;50.708;7.906;2023-03-14T04:01:59;94131.50;;;7.98;84.72
77207;BME280;66190;50.708;7.906;2023-03-14T04:04:24;94114.88;;;7.96;84.42
77207;BME280;66190;50.708;7.906;2023-03-14T04:06:50;94117.06;;;7.99;84.39
77207;BME280;66190;50.708;7.906;2023-03-14T04:09:15;94118.69;;;8.00;84.36
77207;BME280;66190;50.708;7.906;2023-03-14T04:11:40;94119.47;;;8.01;84.56
77207;BME280;66190;50.708;7.906;2023-03-14T04:14:06;94114.63;;;7.98;84.58
77207;BME280;66190;50.708;7.906;2023-03-14T04:16:32;94111.63;;;7.94;84.22
77207;BME280;66190;50.708;7.906;2023-03-14T04:18:57;94108.13;;;7.94;84.22
77207;BME280;66190;50.708;7.906;2023-03-14T04:21:23;94108.69;;;7.96;83.97
77207;BME280;66190;50.708;7.906;2023-03-14T04:23:49;94099.38;;;7.98;84.19
77207;BME280;66190;50.708;7.906;2023-03-14T04:26:17;94095.06;;;7.97;83.82
77207;BME280;66190;50.708;7.906;2023-03-14T04:28:43;94107.16;;;8.00;84.15
77207;BME280;66190;50.708;7.906;2023-03-14T04:31:10;94105.56;;;7.99;83.96
77207;BME280;66190;50.708;7.906;2023-03-14T04:33:36;94103.19;;;8.02;82.88
77207;BME280;66190;50.708;7.906;2023-03-14T04:36:04;94093.59;;;8.06;82.94
77207;BME280;66190;50.708;7.906;2023-03-14T04:38:29;94093.03;;;8.04;82.67
77207;BME280;66190;50.708;7.906;2023-03-14T04:40:55;94089.81;;;8.02;82.68
77207;BME280;66190;50.708;7.906;2023-03-14T04:43:20;94103.75;;;8.04;83.04
77207;BME280;66190;50.708;7.906;2023-03-14T04:45:45;94090.13;;;8.06;82.84
77207;BME280;66190;50.708;7.906;2023-03-14T04:48:11;94092.31;;;8.09;83.03
77207;BME280;66190;50.708;7.906;2023-03-14T04:50:37;94093.03;;;8.04;82.52
77207;BME280;66190;50.708;7.906;2023-03-14T04:53:03;94094.91;;;8.04;82.56
77207;BME280;66190;50.708;7.906;2023-03-14T04:55:28;94089.81;;;8.02;82.47
77207;BME280;66190;50.708;7.906;2023-03-14T04:57:53;94087.34;;;8.01;82.82
77207;BME280;66190;50.708;7.906;2023-03-14T05:00:19;94083.38;;;8.03;83.13
77207;BME280;66190;50.708;7.906;2023-03-14T05:02:44;94078.03;;;8.03;83.47
77207;BME280;66190;50.708;7.906;2023-03-14T05:05:10;94079.56;;;7.99;83.28
77207;BME280;66190;50.708;7.906;2023-03-14T05:07:36;94082.16;;;7.94;83.36
77207;BME280;66190;50.708;7.906;2023-03-14T05:10:02;94072.84;;;7.97;83.55
77207;BME280;66190;50.708;7.906;2023-03-14T05:12:27;94064.00;;;7.96;83.63
77207;BME280;66190;50.708;7.906;2023-03-14T05:14:54;94058.16;;;7.99;83.60
77207;BME280;66190;50.708;7.906;2023-03-14T05:17:21;94052.00;;;7.99;83.68
77207;BME280;66190;50.708;7.906;2023-03-14T05:19:46;94052.47;;;7.96;84.15
77207;BME280;66190;50.708;7.906;2023-03-14T05:22:12;94054.81;;;7.92;83.91
77207;BME280;66190;50.708;7.906;2023-03-14T05:24:37;94049.16;;;7.89;84.57
77207;BME280;66190;50.708;7.906;2023-03-14T05:27:04;94029.31;;;7.85;84.85
77207;BME280;66190;50.708;7.906;2023-03-14T05:29:29;94041.44;;;7.92;85.13
77207;BME280;66190;50.708;7.906;2023-03-14T05:31:55;94038.13;;;7.85;85.48
77207;BME280;66190;50.708;7.906;2023-03-14T05:34:20;94039.19;;;7.84;85.14
77207;BME280;66190;50.708;7.906;2023-03-14T05:36:46;94030.91;;;7.86;84.93
77207;BME280;66190;50.708;7.906;2023-03-14T05:39:11;94040.00;;;7.85;84.75
77207;BME280;66190;50.708;7.906;2023-03-14T05:41:36;94035.44;;;7.85;85.05
77207;BME280;66190;50.708;7.906;2023-03-14T05:44:02;94035.94;;;7.82;85.22
77207;BME280;66190;50.708;7.906;2023-03-14T05:46:27;94045.38;;;7.85;85.19
77207;BME280;66190;50.708;7.906;2023-03-14T05:48:54;94032.28;;;7.72;86.46
77207;BME280;66190;50.708;7.906;2023-03-14T05:51:19;94030.59;;;7.66;87.42
77207;BME280;66190;50.708;7.906;2023-03-14T05:53:45;94028.41;;;7.63;86.73
77207;BME280;66190;50.708;7.906;2023-03-14T05:56:10;94023.13;;;7.51;86.67
77207;BME280;66190;50.708;7.906;2023-03-14T05:58:36;94019.00;;;7.44;86.82
77207;BME280;66190;50.708;7.906;2023-03-14T06:01:03;94018.91;;;7.39;88.39
77207;BME280;66190;50.708;7.906;2023-03-14T06:03:28;94026.38;;;7.37;88.20
77207;BME280;66190;50.708;7.906;2023-03-14T06:05:54;94019.72;;;7.39;88.35
77207;BME280;66190;50.708;7.906;2023-03-14T06:08:19;94021.34;;;7.40;87.97
77207;BME280;66190;50.708;7.906;2023-03-14T06:10:44;94019.41;;;7.36;88.63
77207;BME280;66190;50.708;7.906;2023-03-14T06:13:10;94020.47;;;7.35;88.98
77207;BME280;66190;50.708;7.906;2023-03-14T06:15:37;94000.34;;;7.32;88.52
77207;BME280;66190;50.708;7.906;2023-03-14T06:18:02;94025.81;;;7.35;88.54
77207;BME280;66190;50.708;7.906;2023-03-14T06:20:28;94031.88;;;7.30;88.46
77207;BME280;66190;50.708;7.906;2023-03-14T06:22:53;94018.66;;;7.24;88.95
77207;BME280;66190;50.708;7.906;2023-03-14T06:25:19;94030.34;;;7.34;88.03
77207;BME280;66190;50.708;7.906;2023-03-14T06:27:44;94021.66;;;7.27;88.32
77207;BME280;66190;50.708;7.906;2023-03-14T06:30:10;94010.41;;;7.25;88.29
77207;BME280;66190;50.708;7.906;2023-03-14T06:32:37;94023.28;;;7.28;87.84
77207;BME280;66190;50.708;7.906;2023-03-14T06:35:02;94024.19;;;7.34;87.92
77207;BME280;66190;50.708;7.906;2023-03-14T06:37:28;94009.19;;;7.33;87.35
77207;BME280;66190;50.708;7.906;2023-03-14T06:39:55;94000.19;;;7.39;86.37
77207;BME280;66190;50.708;7.906;2023-03-14T06:42:20;94002.88;;;7.39;87.02
77207;BME280;66190;50.708;7.906;2023-03-14T06:44:46;94007.59;;;7.48;86.70
77207;BME280;66190;50.708;7.906;2023-03-14T06:47:11;94008.06;;;7.45;86.70
77207;BME280;66190;50.708;7.906;2023-03-14T06:49:37;94011.22;;;7.42;86.38
77207;BME280;66190;50.708;7.906;2023-03-14T06:52:02;94007.00;;;7.46;86.45
77207;BME280;66190;50.708;7.906;2023-03-14T06:54:28;94000.50;;;7.42;87.28
77207;BME280;66190;50.708;7.906;2023-03-14T06:56:53;94015.78;;;7.42;87.73
77207;BME280;66190;50.708;7.906;2023-03-14T06:59:18;94006.84;;;7.36;88.42
77207;BME280;66190;50.708;7.906;2023-03-14T07:01:44;94015.34;;;7.33;89.11
77207;BME280;66190;50.708;7.906;2023-03-14T07:04:10;94003.53;;;7.29;90.20
77207;BME280;66190;50.708;7.906;2023-03-14T07:06:36;94007.31;;;7.33;89.27
77207;BME280;66190;50.708;7.906;2023-03-14T07:09:02;94007.63;;;7.37;89.09
77207;BME280;66190;50.708;7.906;2023-03-14T07:11:27;94002.47;;;7.30;89.35
77207;BME280;66190;50.708;7.906;2023-03-14T07:13:53;94005.06;;;7.25;89.86
77207;BME280;66190;50.708;7.906;2023-03-14T07:16:19;94019.91;;;7.33;89.95
77207;BME280;66190;50.708;7.906;2023-03-14T07:18:45;94021.25;;;7.35;89.40
77207;BME280;66190;50.708;7.906;2023-03-14T07:21:11;94010.09;;;7.38;89.38
77207;BME280;66190;50.708;7.906;2023-03-14T07:23:39;94023.81;;;7.42;89.51
77207;BME280;66190;50.708;7.906;2023-03-14T07:26:04;94027.00;;;7.44;89.12
77207;BME280;66190;50.708;7.906;2023-03-14T07:28:30;94010.25;;;7.48;89.12
77207;BME280;66190;50.708;7.906;2023-03-14T07:30:55;94006.75;;;7.48;88.95
77207;BME280;66190;50.708;7.906;2023-03-14T07:33:21;94019.19;;;7.54;88.84
77207;BME280;66190;50.708;7.906;2023-03-14T07:35:48;94004.75;;;7.55;88.67
77207;BME280;66190;50.708;7.906;2023-03-14T07:38:14;94018.94;;;7.55;88.45
77207;BME280;66190;50.708;7.906;2023-03-14T07:40:39;94020.03;;;7.59;88.30
77207;BME280;66190;50.708;7.906;2023-03-14T07:43:04;94005.97;;;7.64;88.24
77207;BME280;66190;50.708;7.906;2023-03-14T07:45:30;94006.34;;;7.72;88.47
77207;BME280;66190;50.708;7.906;2023-03-14T07:47:55;94013.31;;;7.73;87.95
77207;BME280;66190;50.708;7.906;2023-03-14T07:50:25;94021.34;;;7.73;88.01
77207;BME280;66190;50.708;7.906;2023-03-14T07:52:51;94022.97;;;7.74;88.25
77207;BME280;66190;50.708;7.906;2023-03-14T07:55:17;94014.22;;;7.79;87.76
77207;BME280;66190;50.708;7.906;2023-03-14T07:57:42;94025.25;;;7.82;88.22
77207;BME280;66190;50.708;7.906;2023-03-14T08:00:09;94018.75;;;7.78;87.79
77207;BME280;66190;50.708;7.906;2023-03-14T08:02:35;94023.63;;;7.81;87.89
77207;BME280;66190;50.708;7.906;2023-03-14T08:05:03;94017.47;;;7.81;87.65
77207;BME280;66190;50.708;7.906;2023-03-14T08:07:29;94023.94;;;7.85;87.95
77207;BME280;66190;50.708;7.906;2023-03-14T08:09:54;94033.16;;;7.94;87.58
77207;BME280;66190;50.708;7.906;2023-03-14T08:12:20;94017.75;;;8.01;87.27
77207;BME280;66190;50.708;7.906;2023-03-14T08:14:45;94040.28;;;8.05;86.94
77207;BME280;66190;50.708;7.906;2023-03-14T08:17:11;94029.59;;;8.05;87.04
77207;BME280;66190;50.708;7.906;2023-03-14T08:19:37;94032.66;;;8.14;86.94
77207;BME280;66190;50.708;7.906;2023-03-14T08:22:04;94039.66;;;8.15;87.04
77207;BME280;66190;50.708;7.906;2023-03-14T08:24:29;94037.28;;;8.18;86.88
77207;BME280;66190;50.708;7.906;2023-03-14T08:26:55;94041.56;;;8.19;86.52
77207;BME280;66190;50.708;7.906;2023-03-14T08:29:20;94043.84;;;8.27;86.55
77207;BME280;66190;50.708;7.906;2023-03-14T08:31:45;94028.28;;;8.24;86.25
77207;BME280;66190;50.708;7.906;2023-03-14T08:34:11;94040.63;;;8.25;85.67
77207;BME280;66190;50.708;7.906;2023-03-14T08:36:39;94042.56;;;8.30;86.36
77207;BME280;66190;50.708;7.906;2023-03-14T08:39:05;94038.81;;;8.31;85.95
77207;BME280;66190;50.708;7.906;2023-03-14T08:41:32;94041.41;;;8.26;85.86
77207;BME280;66190;50.708;7.906;2023-03-14T08:43:58;94051.41;;;8.30;86.00
77207;BME280;66190;50.708;7.906;2023-03-14T08:46:23;94047.41;;;8.33;85.90
77207;BME280;66190;50.708;7.906;2023-03-14T08:48:49;94046.38;;;8.34;86.00
77207;BME280;66190;50.708;7.906;2023-03-14T08:51:14;94044.53;;;8.39;86.14
77207;BME280;66190;50.708;7.906;2023-03-14T08:53:40;94047.06;;;8.46;86.12
77207;BME280;66190;50.708;7.906;2023-03-14T08:56:07;94049.56;;;8.52;85.51
77207;BME280;66190;50.708;7.906;2023-03-14T08:58:35;94041.78;;;8.51;85.17
77207;BME280;66190;50.708;7.906;2023-03-14T09:01:04;94047.13;;;8.51;85.30
77207;BME280;66190;50.708;7.906;2023-03-14T09:03:29;94039.22;;;8.61;84.87
77207;BME280;66190;50.708;7.906;2023-03-14T09:05:54;94045.41;;;8.61;85.38
77207;BME280;66190;50.708;7.906;2023-03-14T09:08:20;94035.56;;;8.67;85.01
77207;BME280;66190;50.708;7.906;2023-03-14T09:10:45;94041.22;;;8.70;84.06
77207;BME280;66190;50.708;7.906;2023-03-14T09:13:11;94047.88;;;8.68;84.35
77207;BME280;66190;50.708;7.906;2023-03-14T09:15:36;94040.78;;;8.78;84.30
77207;BME280;66190;50.708;7.906;2023-03-14T09:18:01;94047.50;;;8.81;83.66
77207;BME280;66190;50.708;7.906;2023-03-14T09:20:27;94036.72;;;8.76;84.01
77207;BME280;66190;50.708;7.906;2023-03-14T09:22:53;94038.59;;;8.75;83.94
77207;BME280;66190;50.708;7.906;2023-03-14T09:25:19;94053.03;;;8.74;84.42
77207;BME280;66190;50.708;7.906;2023-03-14T09:27:44;94047.63;;;8.69;84.92
77207;BME280;66190;50.708;7.906;2023-03-14T09:30:11;94056.69;;;8.63;85.82
77207;BME280;66190;50.708;7.906;2023-03-14T09:32:37;94061.84;;;8.70;86.03
77207;BME280;66190;50.708;7.906;2023-03-14T09:35:03;94058.84;;;8.66;85.90
77207;BME280;66190;50.708;7.906;2023-03-14T09:37:28;94063.13;;;8.67;86.32
77207;BME280;66190;50.708;7.906;2023-03-14T09:39:54;94065.34;;;8.70;86.03
77207;BME280;66190;50.708;7.906;2023-03-14T09:42:25;94067.47;;;8.68;85.91
77207;BME280;66190;50.708;7.906;2023-03-14T09:45:07;94066.97;;;8.71;85.58
77207;BME280;66190;50.708;7.906;2023-03-14T09:47:35;94074.50;;;8.74;85.35
77207;BME280;66190;50.708;7.906;2023-03-14T09:50:01;94080.47;;;8.81;84.99
77207;BME280;66190;50.708;7.906;2023-03-14T09:52:31;94074.88;;;8.83;85.09
77207;BME280;66190;50.708;7.906;2023-03-14T09:55:00;94067.63;;;8.83;85.29
77207;BME280;66190;50.708;7.906;2023-03-14T09:57:27;94068.72;;;8.82;85.69
77207;BME280;66190;50.708;7.906;2023-03-14T09:59:56;94069.94;;;8.75;86.08
77207;BME280;66190;50.708;7.906;2023-03-14T10:02:25;94063.47;;;8.71;86.42
77207;BME280;66190;50.708;7.906;2023-03-14T10:04:53;94076.38;;;8.74;86.42
77207;BME280;66190;50.708;7.906;2023-03-14T10:07:25;94071.88;;;8.79;86.59
77207;BME280;66190;50.708;7.906;2023-03-14T10:09:52;94079.19;;;8.84;85.71
77207;BME280;66190;50.708;7.906;2023-03-14T10:12:19;94079.25;;;8.89;86.18
77207;BME280;66190;50.708;7.906;2023-03-14T10:14:51;94077.91;;;8.91;85.98
77207;BME280;66190;50.708;7.906;2023-03-14T10:17:19;94090.38;;;8.81;86.90
77207;BME280;66190;50.708;7.906;2023-03-14T10:19:59;94085.22;;;8.74;87.77
77207;BME280;66190;50.708;7.906;2023-03-14T10:22:29;94088.66;;;8.70;88.69
77207;BME280;66190;50.708;7.906;2023-03-14T10:25:00;94107.91;;;8.67;89.15
77207;BME280;66190;50.708;7.906;2023-03-14T10:27:31;94112.97;;;8.63;89.22
77207;BME280;66190;50.708;7.906;2023-03-14T10:30:04;94130.66;;;8.64;89.40
77207;BME280;66190;50.708;7.906;2023-03-14T10:32:37;94138.81;;;8.53;89.61
77207;BME280;66190;50.708;7.906;2023-03-14T10:37:34;94146.78;;;8.48;90.18
77207;BME280;66190;50.708;7.906;2023-03-14T10:40:02;94149.66;;;8.46;90.50
77207;BME280;66190;50.708;7.906;2023-03-14T10:42:39;94154.88;;;8.36;90.72
77207;BME280;66190;50.708;7.906;2023-03-14T10:45:24;94143.84;;;8.33;89.77
77207;BME280;66190;50.708;7.906;2023-03-14T10:47:51;94195.28;;;8.18;89.67
77207;BME280;66190;50.708;7.906;2023-03-14T10:50:28;94198.28;;;7.60;87.72
77207;BME280;66190;50.708;7.906;2023-03-14T10:52:54;94214.59;;;7.19;89.12
77207;BME280;66190;50.708;7.906;2023-03-14T10:55:21;94240.44;;;6.79;90.21
77207;BME280;66190;50.708;7.906;2023-03-14T10:57:48;94250.06;;;6.57;90.71
77207;BME280;66190;50.708;7.906;2023-03-14T11:00:22;94254.22;;;6.41;91.29
77207;BME280;66190;50.708;7.906;2023-03-14T11:05:46;94278.59;;;6.22;91.83
77207;BME280;66190;50.708;7.906;2023-03-14T11:08:23;94282.44;;;6.26;91.81
77207;BME280;66190;50.708;7.906;2023-03-14T11:11:11;94276.19;;;6.32;91.54
77207;BME280;66190;50.708;7.906;2023-03-14T11:13:45;94283.66;;;6.12;90.75
77207;BME280;66190;50.708;7.906;2023-03-14T11:25:34;94332.53;;;5.83;91.67
77207;BME280;66190;50.708;7.906;2023-03-14T11:28:15;94332.69;;;5.69;92.13
77207;BME280;66190;50.708;7.906;2023-03-14T11:35:58;94365.97;;;5.49;91.86
77207;BME280;66190;50.708;7.906;2023-03-14T11:38:49;94368.25;;;5.45;92.39
77207;BME280;66190;50.708;7.906;2023-03-14T11:41:23;94367.59;;;5.50;92.39
77207;BME280;66190;50.708;7.906;2023-03-14T11:43:55;94377.56;;;5.54;92.35
77207;BME280;66190;50.708;7.906;2023-03-14T11:46:27;94384.56;;;5.55;92.37
77207;BME280;66190;50.708;7.906;2023-03-14T11:49:32;94391.34;;;5.51;92.19
77207;BME280;66190;50.708;7.906;2023-03-14T11:52:04;94393.38;;;5.56;93.07
77207;BME280;66190;50.708;7.906;2023-03-14T11:54:45;94402.47;;;5.48;93.27
77207;BME280;66190;50.708;7.906;2023-03-14T11:57:17;94406.59;;;5.44;93.22
77207;BME280;66190;50.708;7.906;2023-03-14T11:59:52;94417.94;;;5.40;92.59
77207;BME280;66190;50.708;7.906;2023-03-14T12:02:22;94410.66;;;5.29;92.50
77207;BME280;66190;50.708;7.906;2023-03-14T12:07:43;94403.34;;;5.24;93.20
77207;BME280;66190;50.708;7.906;2023-03-14T12:10:17;94423.34;;;5.33;93.19
77207;BME280;66190;50.708;7.906;2023-03-14T12:12:42;94434.66;;;5.29;93.38
77207;BME280;66190;50.708;7.906;2023-03-14T12:15:19;94440.59;;;5.31;93.20
77207;BME280;66190;50.708;7.906;2023-03-14T12:17:45;94430.16;;;5.29;92.86
77207;BME280;66190;50.708;7.906;2023-03-14T12:23:03;94465.41;;;5.31;93.90
77207;BME280;66190;50.708;7.906;2023-03-14T12:25:31;94457.78;;;5.35;93.83
77207;BME280;66190;50.708;7.906;2023-03-14T12:30:37;94466.53;;;5.42;92.70
77207;BME280;66190;50.708;7.906;2023-03-14T12:35:40;94489.56;;;5.54;92.33
77207;BME280;66190;50.708;7.906;2023-03-14T12:38:23;94485.16;;;5.66;92.75
77207;BME280;66190;50.708;7.906;2023-03-14T12:41:03;94483.22;;;5.73;90.77
77207;BME280;66190;50.708;7.906;2023-03-14T12:43:33;94491.41;;;5.78;90.64
77207;BME280;66190;50.708;7.906;2023-03-14T12:48:33;94495.22;;;5.89;90.49
77207;BME280;66190;50.708;7.906;2023-03-14T12:51:04;94488.28;;;5.82;90.47
77207;BME280;66190;50.708;7.906;2023-03-14T12:56:38;94542.25;;;5.10;89.01
77207;BME280;66190;50.708;7.906;2023-03-14T13:05:14;94602.03;;;4.89;88.95
77207;BME280;66190;50.708;7.906;2023-03-14T13:12:57;94589.38;;;4.85;90.28
77207;BME280;66190;50.708;7.906;2023-03-14T13:15:29;94611.69;;;4.84;90.63
77207;BME280;66190;50.708;7.906;2023-03-14T13:17:59;94616.78;;;4.85;90.54
77207;BME280;66190;50.708;7.906;2023-03-14T13:20:30;94627.50;;;4.79;90.88
77207;BME280;66190;50.708;7.906;2023-03-14T13:22:56;94631.19;;;4.78;91.37
77207;BME280;66190;50.708;7.906;2023-03-14T13:25:22;94633.66;;;4.73;91.75
77207;BME280;66190;50.708;7.906;2023-03-14T13:27:48;94652.53;;;4.64;92.31
77207;BME280;66190;50.708;7.906;2023-03-14T13:30:23;94656.00;;;4.72;91.61
77207;BME280;66190;50.708;7.906;2023-03-14T13:32:53;94681.84;;;4.64;91.81
77207;BME280;66190;50.708;7.906;2023-03-14T13:35:28;94683.69;;;4.57;91.63
77207;BME280;66190;50.708;7.906;2023-03-14T13:38:01;94686.97;;;4.59;91.40
77207;BME280;66190;50.708;7.906;2023-03-14T13:40:31;94694.00;;;4.41;90.22
77207;BME280;66190;50.708;7.906;2023-03-14T13:43:18;94706.06;;;4.43;90.69
77207;BME280;66190;50.708;7.906;2023-03-14T13:45:49;94715.69;;;4.38;89.53
77207;BME280;66190;50.708;7.906;2023-03-14T13:48:21;94720.41;;;4.36;88.40
77207;BME280;66190;50.708;7.906;2023-03-14T13:51:10;94723.28;;;4.28;87.99
77207;BME280;66190;50.708;7.906;2023-03-14T13:53:48;94733.72;;;4.29;88.72
77207;BME280;66190;50.708;7.906;2023-03-14T13:56:15;94742.31;;;4.25;88.69
77207;BME280;66190;50.708;7.906;2023-03-14T13:58:42;94765.69;;;4.10;88.38
77207;BME280;66190;50.708;7.906;2023-03-14T14:01:22;94771.19;;;4.21;89.56
77207;BME280;66190;50.708;7.906;2023-03-14T14:03:51;94778.78;;;4.11;89.52
77207;BME280;66190;50.708;7.906;2023-03-14T14:06:35;94791.88;;;4.06;89.25
77207;BME280;66190;50.708;7.906;2023-03-14T14:09:23;94780.81;;;4.03;88.96
77207;BME280;66190;50.708;7.906;2023-03-14T14:12:00;94804.13;;;4.01;88.79